sensor_id;sensor_type;location;lat;lon;timestamp;P1;durP1;ratioP1;P2;durP2;ratioP2
36599;SDS011;35385;55.668;37.508;2023-10-09T00:00:24;0.30;;;0.30;;
36599;SDS011;35385;55.668;37.508;2023-10-09T00:01:41;0.80;;;0.45;;
36599;SDS011;35385;55.668;37.508;2023-10-09T00:02:44;0.68;;;0.30;;
36599;SDS011;35385;55.668;37.508;2023-10-09T00:03:45;0.30;;;0.30;;
36599;SDS011;35385;55.668;37.508;2023-10-09T00:04:50;0.40;;;0.30;;
36599;SDS011;35385;55.668;37.508;2023-10-09T00:05:52;0.77;;;0.50;;
36599;SDS011;35385;55.668;37.508;2023-10-09T00:06:54;0.40;;;0.25;;
36599;SDS011;35385;55.668;37.508;2023-10-09T00:07:59;0.57;;;0.50;;
36599;SDS011;35385;55.668;37.508;2023-10-09T00:09:04;0.30;;;0.30;;
36599;SDS011;35385;55.668;37.508;2023-10-09T00:10:20;0.80;;;0.50;;
36599;SDS011;35385;55.668;37.508;2023-10-09T00:11:21;0.52;;;0.40;;
36599;SDS011;35385;55.668;37.508;2023-10-09T00:12:22;0.40;;;0.40;;
36599;SDS011;35385;55.668;37.508;2023-10-09T00:13:23;0.83;;;0.53;;
36599;SDS011;35385;55.668;37.508;2023-10-09T00:14:31;0.75;;;0.70;;
36599;SDS011;35385;55.668;37.508;2023-10-09T00:15:34;2.25;;;0.57;;
36599;SDS011;35385;55.668;37.508;2023-10-09T00:16:35;0.43;;;0.40;;
36599;SDS011;35385;55.668;37.508;2023-10-09T00:17:37;0.50;;;0.40;;
36599;SDS011;35385;55.668;37.508;2023-10-09T00:18:38;0.98;;;0.60;;
36599;SDS011;35385;55.668;37.508;2023-10-09T00:19:38;1.33;;;0.50;;
36599;SDS011;35385;55.668;37.508;2023-10-09T00:20:39;0.67;;;0.50;;
36599;SDS011;35385;55.668;37.508;2023-10-09T00:21:46;0.65;;;0.50;;
36599;SDS011;35385;55.668;37.508;2023-10-09T00:22:47;0.88;;;0.63;;
36599;SDS011;35385;55.668;37.508;2023-10-09T00:23:48;0.83;;;0.80;;
36599;SDS011;35385;55.668;37.508;2023-10-09T00:24:59;1.83;;;0.70;;
36599;SDS011;35385;55.668;37.508;2023-10-09T00:26:12;0.80;;;0.60;;
36599;SDS011;35385;55.668;37.508;2023-10-09T00:27:16;1.00;;;0.70;;
36599;SDS011;35385;55.668;37.508;2023-10-09T00:28:21;1.10;;;0.70;;
36599;SDS011;35385;55.668;37.508;2023-10-09T00:29:23;0.90;;;0.80;;
36599;SDS011;35385;55.668;37.508;2023-10-09T00:30:23;1.30;;;0.80;;
36599;SDS011;35385;55.668;37.508;2023-10-09T00:31:31;2.10;;;0.90;;
36599;SDS011;35385;55.668;37.508;2023-10-09T00:32:33;0.73;;;0.60;;
36599;SDS011;35385;55.668;37.508;2023-10-09T00:33:37;0.63;;;0.60;;
36599;SDS011;35385;55.668;37.508;2023-10-09T00:34:37;1.10;;;0.80;;
36599;SDS011;35385;55.668;37.508;2023-10-09T00:35:41;0.90;;;0.70;;
36599;SDS011;35385;55.668;37.508;2023-10-09T00:36:44;1.20;;;0.80;;
36599;SDS011;35385;55.668;37.508;2023-10-09T00:37:52;0.88;;;0.88;;
36599;SDS011;35385;55.668;37.508;2023-10-09T00:38:57;1.05;;;0.93;;
36599;SDS011;35385;55.668;37.508;2023-10-09T00:40:01;1.23;;;1.02;;
36599;SDS011;35385;55.668;37.508;2023-10-09T00:41:12;1.33;;;0.80;;
36599;SDS011;35385;55.668;37.508;2023-10-09T00:42:19;0.70;;;0.70;;
36599;SDS011;35385;55.668;37.508;2023-10-09T00:43:30;0.77;;;0.70;;
36599;SDS011;35385;55.668;37.508;2023-10-09T00:44:31;1.13;;;0.80;;
36599;SDS011;35385;55.668;37.508;2023-10-09T00:45:38;1.60;;;0.80;;
36599;SDS011;35385;55.668;37.508;2023-10-09T00:46:40;1.35;;;1.00;;
36599;SDS011;35385;55.668;37.508;2023-10-09T00:47:43;1.77;;;0.90;;
36599;SDS011;35385;55.668;37.508;2023-10-09T00:48:45;2.55;;;1.10;;
36599;SDS011;35385;55.668;37.508;2023-10-09T00:51:05;1.63;;;1.20;;
36599;SDS011;35385;55.668;37.508;2023-10-09T00:52:19;1.05;;;0.95;;
36599;SDS011;35385;55.668;37.508;2023-10-09T00:53:31;1.02;;;0.93;;
36599;SDS011;35385;55.668;37.508;2023-10-09T00:54:33;1.23;;;1.08;;
36599;SDS011;35385;55.668;37.508;2023-10-09T00:55:41;0.98;;;0.98;;
36599;SDS011;35385;55.668;37.508;2023-10-09T00:56:45;1.17;;;1.08;;
36599;SDS011;35385;55.668;37.508;2023-10-09T00:57:58;1.00;;;0.90;;
36599;SDS011;35385;55.668;37.508;2023-10-09T01:00:08;1.05;;;0.95;;
36599;SDS011;35385;55.668;37.508;2023-10-09T01:01:24;1.52;;;1.20;;
36599;SDS011;35385;55.668;37.508;2023-10-09T01:02:34;1.30;;;1.20;;
36599;SDS011;35385;55.668;37.508;2023-10-09T01:03:42;1.20;;;1.08;;
36599;SDS011;35385;55.668;37.508;2023-10-09T01:04:46;0.90;;;0.90;;
36599;SDS011;35385;55.668;37.508;2023-10-09T01:06:52;1.13;;;1.02;;
36599;SDS011;35385;55.668;37.508;2023-10-09T01:08:13;1.58;;;0.98;;
36599;SDS011;35385;55.668;37.508;2023-10-09T01:09:17;0.75;;;0.75;;
36599;SDS011;35385;55.668;37.508;2023-10-09T01:10:17;1.13;;;0.90;;
36599;SDS011;35385;55.668;37.508;2023-10-09T01:11:18;1.15;;;1.05;;
36599;SDS011;35385;55.668;37.508;2023-10-09T01:12:21;0.85;;;0.77;;
36599;SDS011;35385;55.668;37.508;2023-10-09T01:13:25;1.00;;;0.83;;
36599;SDS011;35385;55.668;37.508;2023-10-09T01:14:31;1.25;;;1.00;;
36599;SDS011;35385;55.668;37.508;2023-10-09T01:15:41;1.08;;;0.98;;
36599;SDS011;35385;55.668;37.508;2023-10-09T01:16:44;1.40;;;0.90;;
36599;SDS011;35385;55.668;37.508;2023-10-09T01:17:47;0.77;;;0.65;;
36599;SDS011;35385;55.668;37.508;2023-10-09T01:18:48;1.17;;;0.80;;
36599;SDS011;35385;55.668;37.508;2023-10-09T01:19:50;1.55;;;1.00;;
36599;SDS011;35385;55.668;37.508;2023-10-09T01:20:56;0.80;;;0.80;;
36599;SDS011;35385;55.668;37.508;2023-10-09T01:21:56;1.10;;;0.70;;
36599;SDS011;35385;55.668;37.508;2023-10-09T01:23:17;0.60;;;0.60;;
36599;SDS011;35385;55.668;37.508;2023-10-09T01:24:19;0.55;;;0.55;;
36599;SDS011;35385;55.668;37.508;2023-10-09T01:25:20;1.02;;;0.63;;
36599;SDS011;35385;55.668;37.508;2023-10-09T01:26:21;2.05;;;0.60;;
36599;SDS011;35385;55.668;37.508;2023-10-09T01:27:23;0.75;;;0.45;;
36599;SDS011;35385;55.668;37.508;2023-10-09T01:28:32;0.63;;;0.63;;
36599;SDS011;35385;55.668;37.508;2023-10-09T01:29:34;0.40;;;0.35;;
36599;SDS011;35385;55.668;37.508;2023-10-09T01:30:35;1.98;;;0.60;;
36599;SDS011;35385;55.668;37.508;2023-10-09T01:31:45;0.98;;;0.50;;
36599;SDS011;35385;55.668;37.508;2023-10-09T01:32:54;0.63;;;0.57;;
36599;SDS011;35385;55.668;37.508;2023-10-09T01:33:57;0.77;;;0.50;;
36599;SDS011;35385;55.668;37.508;2023-10-09T01:34:59;0.95;;;0.50;;
36599;SDS011;35385;55.668;37.508;2023-10-09T01:36:00;1.13;;;0.50;;
36599;SDS011;35385;55.668;37.508;2023-10-09T01:37:01;0.50;;;0.45;;
36599;SDS011;35385;55.668;37.508;2023-10-09T01:38:06;0.40;;;0.40;;
36599;SDS011;35385;55.668;37.508;2023-10-09T01:39:13;0.40;;;0.40;;
36599;SDS011;35385;55.668;37.508;2023-10-09T01:40:31;0.68;;;0.50;;
36599;SDS011;35385;55.668;37.508;2023-10-09T01:41:38;1.05;;;0.40;;
36599;SDS011;35385;55.668;37.508;2023-10-09T01:42:47;0.68;;;0.60;;
36599;SDS011;35385;55.668;37.508;2023-10-09T01:43:47;1.77;;;0.70;;
36599;SDS011;35385;55.668;37.508;2023-10-09T01:44:51;0.40;;;0.40;;
36599;SDS011;35385;55.668;37.508;2023-10-09T01:45:52;0.50;;;0.40;;
36599;SDS011;35385;55.668;37.508;2023-10-09T01:46:52;0.50;;;0.50;;
36599;SDS011;35385;55.668;37.508;2023-10-09T01:47:56;0.95;;;0.50;;
36599;SDS011;35385;55.668;37.508;2023-10-09T01:48:57;0.55;;;0.55;;
36599;SDS011;35385;55.668;37.508;2023-10-09T01:49:59;0.45;;;0.45;;
36599;SDS011;35385;55.668;37.508;2023-10-09T01:51:05;0.50;;;0.40;;
36599;SDS011;35385;55.668;37.508;2023-10-09T01:52:06;0.60;;;0.50;;
36599;SDS011;35385;55.668;37.508;2023-10-09T01:53:10;0.65;;;0.50;;
36599;SDS011;35385;55.668;37.508;2023-10-09T01:54:17;0.45;;;0.45;;
36599;SDS011;35385;55.668;37.508;2023-10-09T01:55:33;0.47;;;0.47;;
36599;SDS011;35385;55.668;37.508;2023-10-09T01:56:38;0.52;;;0.52;;
36599;SDS011;35385;55.668;37.508;2023-10-09T01:57:39;1.05;;;0.65;;
36599;SDS011;35385;55.668;37.508;2023-10-09T01:58:44;0.52;;;0.52;;
36599;SDS011;35385;55.668;37.508;2023-10-09T01:59:46;0.60;;;0.50;;
36599;SDS011;35385;55.668;37.508;2023-10-09T02:00:49;0.40;;;0.40;;
36599;SDS011;35385;55.668;37.508;2023-10-09T02:01:56;1.20;;;0.50;;
36599;SDS011;35385;55.668;37.508;2023-10-09T02:03:00;0.73;;;0.50;;
36599;SDS011;35385;55.668;37.508;2023-10-09T02:04:05;0.50;;;0.45;;
36599;SDS011;35385;55.668;37.508;2023-10-09T02:05:08;0.50;;;0.50;;
36599;SDS011;35385;55.668;37.508;2023-10-09T02:06:25;0.50;;;0.50;;
36599;SDS011;35385;55.668;37.508;2023-10-09T02:07:30;0.50;;;0.47;;
36599;SDS011;35385;55.668;37.508;2023-10-09T02:08:40;0.40;;;0.40;;
36599;SDS011;35385;55.668;37.508;2023-10-09T02:09:49;0.73;;;0.40;;
36599;SDS011;35385;55.668;37.508;2023-10-09T02:10:49;0.30;;;0.30;;
36599;SDS011;35385;55.668;37.508;2023-10-09T02:11:54;0.50;;;0.50;;
36599;SDS011;35385;55.668;37.508;2023-10-09T02:13:58;1.55;;;0.60;;
36599;SDS011;35385;55.668;37.508;2023-10-09T02:15:02;0.40;;;0.40;;
36599;SDS011;35385;55.668;37.508;2023-10-09T02:16:15;0.40;;;0.40;;
36599;SDS011;35385;55.668;37.508;2023-10-09T02:17:17;0.43;;;0.43;;
36599;SDS011;35385;55.668;37.508;2023-10-09T02:18:19;0.45;;;0.38;;
36599;SDS011;35385;55.668;37.508;2023-10-09T02:19:24;0.30;;;0.30;;
36599;SDS011;35385;55.668;37.508;2023-10-09T02:20:34;0.40;;;0.40;;
36599;SDS011;35385;55.668;37.508;2023-10-09T02:21:57;0.40;;;0.40;;
36599;SDS011;35385;55.668;37.508;2023-10-09T02:22:58;0.55;;;0.40;;
36599;SDS011;35385;55.668;37.508;2023-10-09T02:24:02;0.40;;;0.40;;
36599;SDS011;35385;55.668;37.508;2023-10-09T02:25:10;0.30;;;0.30;;
36599;SDS011;35385;55.668;37.508;2023-10-09T02:26:14;0.43;;;0.38;;
36599;SDS011;35385;55.668;37.508;2023-10-09T02:27:26;0.98;;;0.50;;
36599;SDS011;35385;55.668;37.508;2023-10-09T02:28:45;0.55;;;0.40;;
36599;SDS011;35385;55.668;37.508;2023-10-09T02:29:53;0.50;;;0.50;;
36599;SDS011;35385;55.668;37.508;2023-10-09T02:30:58;0.60;;;0.50;;
36599;SDS011;35385;55.668;37.508;2023-10-09T02:32:01;0.47;;;0.40;;
36599;SDS011;35385;55.668;37.508;2023-10-09T02:33:17;0.90;;;0.50;;
36599;SDS011;35385;55.668;37.508;2023-10-09T02:34:31;0.85;;;0.52;;
36599;SDS011;35385;55.668;37.508;2023-10-09T02:35:38;0.70;;;0.40;;
36599;SDS011;35385;55.668;37.508;2023-10-09T02:36:39;0.80;;;0.50;;
36599;SDS011;35385;55.668;37.508;2023-10-09T02:37:43;0.80;;;0.50;;
36599;SDS011;35385;55.668;37.508;2023-10-09T02:38:46;0.93;;;0.60;;
36599;SDS011;35385;55.668;37.508;2023-10-09T02:39:51;0.40;;;0.40;;
36599;SDS011;35385;55.668;37.508;2023-10-09T02:40:52;0.80;;;0.50;;
36599;SDS011;35385;55.668;37.508;2023-10-09T02:42:13;0.52;;;0.40;;
36599;SDS011;35385;55.668;37.508;2023-10-09T02:43:14;1.08;;;0.55;;
36599;SDS011;35385;55.668;37.508;2023-10-09T02:44:18;0.90;;;0.57;;
36599;SDS011;35385;55.668;37.508;2023-10-09T02:45:24;1.80;;;0.50;;
36599;SDS011;35385;55.668;37.508;2023-10-09T02:46:26;0.73;;;0.50;;
36599;SDS011;35385;55.668;37.508;2023-10-09T02:47:29;0.57;;;0.45;;
36599;SDS011;35385;55.668;37.508;2023-10-09T02:48:37;0.77;;;0.43;;
36599;SDS011;35385;55.668;37.508;2023-10-09T02:49:42;0.43;;;0.40;;
36599;SDS011;35385;55.668;37.508;2023-10-09T02:50:43;0.50;;;0.50;;
36599;SDS011;35385;55.668;37.508;2023-10-09T02:51:45;1.00;;;0.80;;
36599;SDS011;35385;55.668;37.508;2023-10-09T02:52:52;0.60;;;0.60;;
36599;SDS011;35385;55.668;37.508;2023-10-09T02:54:00;1.42;;;0.80;;
36599;SDS011;35385;55.668;37.508;2023-10-09T02:56:28;1.75;;;0.70;;
36599;SDS011;35385;55.668;37.508;2023-10-09T02:57:43;2.80;;;0.70;;
36599;SDS011;35385;55.668;37.508;2023-10-09T02:58:45;1.10;;;0.70;;
36599;SDS011;35385;55.668;37.508;2023-10-09T02:59:48;0.98;;;0.77;;
36599;SDS011;35385;55.668;37.508;2023-10-09T03:00:51;1.90;;;1.05;;
36599;SDS011;35385;55.668;37.508;2023-10-09T03:01:52;0.60;;;0.60;;
36599;SDS011;35385;55.668;37.508;2023-10-09T03:02:55;0.63;;;0.57;;
36599;SDS011;35385;55.668;37.508;2023-10-09T03:03:58;0.73;;;0.60;;
36599;SDS011;35385;55.668;37.508;2023-10-09T03:05:02;0.73;;;0.60;;
36599;SDS011;35385;55.668;37.508;2023-10-09T03:06:05;1.10;;;0.95;;
36599;SDS011;35385;55.668;37.508;2023-10-09T03:07:11;1.05;;;0.68;;
36599;SDS011;35385;55.668;37.508;2023-10-09T03:08:13;2.05;;;0.80;;
36599;SDS011;35385;55.668;37.508;2023-10-09T03:09:17;0.90;;;0.70;;
36599;SDS011;35385;55.668;37.508;2023-10-09T03:10:18;0.68;;;0.55;;
36599;SDS011;35385;55.668;37.508;2023-10-09T03:11:19;1.10;;;0.80;;
36599;SDS011;35385;55.668;37.508;2023-10-09T03:12:19;2.30;;;1.00;;
36599;SDS011;35385;55.668;37.508;2023-10-09T03:13:26;0.80;;;0.60;;
36599;SDS011;35385;55.668;37.508;2023-10-09T03:14:29;0.70;;;0.60;;
36599;SDS011;35385;55.668;37.508;2023-10-09T03:15:31;0.65;;;0.65;;
36599;SDS011;35385;55.668;37.508;2023-10-09T03:16:36;1.33;;;0.70;;
36599;SDS011;35385;55.668;37.508;2023-10-09T03:17:38;0.95;;;0.82;;
36599;SDS011;35385;55.668;37.508;2023-10-09T03:18:38;0.80;;;0.80;;
36599;SDS011;35385;55.668;37.508;2023-10-09T03:19:39;1.30;;;0.63;;
36599;SDS011;35385;55.668;37.508;2023-10-09T03:20:43;0.60;;;0.50;;
36599;SDS011;35385;55.668;37.508;2023-10-09T03:21:44;1.05;;;0.90;;
36599;SDS011;35385;55.668;37.508;2023-10-09T03:22:46;1.23;;;0.98;;
36599;SDS011;35385;55.668;37.508;2023-10-09T03:24:51;2.72;;;1.60;;
36599;SDS011;35385;55.668;37.508;2023-10-09T03:25:53;1.40;;;1.30;;
36599;SDS011;35385;55.668;37.508;2023-10-09T03:26:53;1.97;;;1.67;;
36599;SDS011;35385;55.668;37.508;2023-10-09T03:27:56;1.60;;;1.35;;
36599;SDS011;35385;55.668;37.508;2023-10-09T03:28:58;1.52;;;1.25;;
36599;SDS011;35385;55.668;37.508;2023-10-09T03:30:06;1.58;;;1.40;;
36599;SDS011;35385;55.668;37.508;2023-10-09T03:31:10;2.33;;;1.00;;
36599;SDS011;35385;55.668;37.508;2023-10-09T03:32:12;1.20;;;1.00;;
36599;SDS011;35385;55.668;37.508;2023-10-09T03:33:13;1.60;;;1.25;;
36599;SDS011;35385;55.668;37.508;2023-10-09T03:34:15;1.27;;;1.15;;
36599;SDS011;35385;55.668;37.508;2023-10-09T03:35:15;1.63;;;0.60;;
36599;SDS011;35385;55.668;37.508;2023-10-09T03:36:24;0.93;;;0.82;;
36599;SDS011;35385;55.668;37.508;2023-10-09T03:37:26;0.70;;;0.63;;
36599;SDS011;35385;55.668;37.508;2023-10-09T03:38:36;1.17;;;0.93;;
36599;SDS011;35385;55.668;37.508;2023-10-09T03:39:38;1.77;;;0.98;;
36599;SDS011;35385;55.668;37.508;2023-10-09T03:40:44;0.68;;;0.60;;
36599;SDS011;35385;55.668;37.508;2023-10-09T03:41:48;1.10;;;1.00;;
36599;SDS011;35385;55.668;37.508;2023-10-09T03:42:50;1.00;;;0.90;;
36599;SDS011;35385;55.668;37.508;2023-10-09T03:43:51;1.05;;;0.93;;
36599;SDS011;35385;55.668;37.508;2023-10-09T03:44:52;1.85;;;0.90;;
36599;SDS011;35385;55.668;37.508;2023-10-09T03:45:53;1.50;;;0.97;;
36599;SDS011;35385;55.668;37.508;2023-10-09T03:46:54;0.70;;;0.70;;
36599;SDS011;35385;55.668;37.508;2023-10-09T03:49:01;1.83;;;1.00;;
36599;SDS011;35385;55.668;37.508;2023-10-09T03:50:02;1.00;;;0.82;;
36599;SDS011;35385;55.668;37.508;2023-10-09T03:51:21;1.10;;;1.00;;
36599;SDS011;35385;55.668;37.508;2023-10-09T03:52:22;1.52;;;1.02;;
36599;SDS011;35385;55.668;37.508;2023-10-09T03:53:25;1.27;;;1.17;;
36599;SDS011;35385;55.668;37.508;2023-10-09T03:54:26;2.63;;;1.10;;
36599;SDS011;35385;55.668;37.508;2023-10-09T03:56:28;1.75;;;1.00;;
36599;SDS011;35385;55.668;37.508;2023-10-09T03:57:31;0.60;;;0.60;;
36599;SDS011;35385;55.668;37.508;2023-10-09T03:58:32;1.10;;;1.00;;
36599;SDS011;35385;55.668;37.508;2023-10-09T03:59:34;0.73;;;0.73;;
36599;SDS011;35385;55.668;37.508;2023-10-09T04:00:37;0.85;;;0.80;;
36599;SDS011;35385;55.668;37.508;2023-10-09T04:01:45;1.25;;;0.80;;
36599;SDS011;35385;55.668;37.508;2023-10-09T04:02:48;2.33;;;1.25;;
36599;SDS011;35385;55.668;37.508;2023-10-09T04:03:50;0.90;;;0.77;;
36599;SDS011;35385;55.668;37.508;2023-10-09T04:05:04;0.75;;;0.75;;
36599;SDS011;35385;55.668;37.508;2023-10-09T04:06:07;0.80;;;0.80;;
36599;SDS011;35385;55.668;37.508;2023-10-09T04:07:10;0.70;;;0.70;;
36599;SDS011;35385;55.668;37.508;2023-10-09T04:08:11;0.95;;;0.80;;
36599;SDS011;35385;55.668;37.508;2023-10-09T04:09:28;0.50;;;0.50;;
36599;SDS011;35385;55.668;37.508;2023-10-09T04:10:35;0.70;;;0.60;;
36599;SDS011;35385;55.668;37.508;2023-10-09T04:11:52;1.20;;;0.85;;
36599;SDS011;35385;55.668;37.508;2023-10-09T04:13:12;1.00;;;0.80;;
36599;SDS011;35385;55.668;37.508;2023-10-09T04:14:17;1.15;;;0.80;;
36599;SDS011;35385;55.668;37.508;2023-10-09T04:15:44;0.60;;;0.60;;
36599;SDS011;35385;55.668;37.508;2023-10-09T04:16:45;0.80;;;0.70;;
36599;SDS011;35385;55.668;37.508;2023-10-09T04:17:52;0.52;;;0.50;;
36599;SDS011;35385;55.668;37.508;2023-10-09T04:18:52;0.67;;;0.67;;
36599;SDS011;35385;55.668;37.508;2023-10-09T04:19:56;1.27;;;0.82;;
36599;SDS011;35385;55.668;37.508;2023-10-09T04:21:15;0.60;;;0.60;;
36599;SDS011;35385;55.668;37.508;2023-10-09T04:22:19;0.50;;;0.50;;
36599;SDS011;35385;55.668;37.508;2023-10-09T04:23:26;0.93;;;0.60;;
36599;SDS011;35385;55.668;37.508;2023-10-09T04:24:36;0.70;;;0.70;;
36599;SDS011;35385;55.668;37.508;2023-10-09T04:25:41;0.80;;;0.65;;
36599;SDS011;35385;55.668;37.508;2023-10-09T04:26:44;0.60;;;0.60;;
36599;SDS011;35385;55.668;37.508;2023-10-09T04:27:45;1.25;;;1.00;;
36599;SDS011;35385;55.668;37.508;2023-10-09T04:28:47;1.10;;;0.98;;
36599;SDS011;35385;55.668;37.508;2023-10-09T04:29:52;2.45;;;0.68;;
36599;SDS011;35385;55.668;37.508;2023-10-09T04:30:55;0.90;;;0.60;;
36599;SDS011;35385;55.668;37.508;2023-10-09T04:31:57;0.55;;;0.55;;
36599;SDS011;35385;55.668;37.508;2023-10-09T04:33:01;2.60;;;0.82;;
36599;SDS011;35385;55.668;37.508;2023-10-09T04:34:11;1.13;;;0.73;;
36599;SDS011;35385;55.668;37.508;2023-10-09T04:35:29;2.20;;;0.70;;
36599;SDS011;35385;55.668;37.508;2023-10-09T04:36:30;1.40;;;0.80;;
36599;SDS011;35385;55.668;37.508;2023-10-09T04:37:46;0.80;;;0.70;;
36599;SDS011;35385;55.668;37.508;2023-10-09T04:38:52;1.13;;;0.55;;
36599;SDS011;35385;55.668;37.508;2023-10-09T04:40:16;0.50;;;0.50;;
36599;SDS011;35385;55.668;37.508;2023-10-09T04:41:36;2.05;;;0.70;;
36599;SDS011;35385;55.668;37.508;2023-10-09T04:42:43;0.70;;;0.60;;
36599;SDS011;35385;55.668;37.508;2023-10-09T04:43:58;0.50;;;0.50;;
36599;SDS011;35385;55.668;37.508;2023-10-09T04:45:18;1.63;;;0.60;;
36599;SDS011;35385;55.668;37.508;2023-10-09T04:46:38;1.45;;;0.70;;
36599;SDS011;35385;55.668;37.508;2023-10-09T04:47:44;0.80;;;0.60;;
36599;SDS011;35385;55.668;37.508;2023-10-09T04:48:58;0.98;;;0.68;;
36599;SDS011;35385;55.668;37.508;2023-10-09T04:50:15;1.13;;;0.70;;
36599;SDS011;35385;55.668;37.508;2023-10-09T04:51:19;0.57;;;0.40;;
36599;SDS011;35385;55.668;37.508;2023-10-09T04:52:36;1.65;;;0.50;;
36599;SDS011;35385;55.668;37.508;2023-10-09T04:53:38;0.30;;;0.28;;
36599;SDS011;35385;55.668;37.508;2023-10-09T04:54:49;0.65;;;0.50;;
36599;SDS011;35385;55.668;37.508;2023-10-09T04:56:08;2.65;;;0.32;;
36599;SDS011;35385;55.668;37.508;2023-10-09T04:57:16;0.75;;;0.50;;
36599;SDS011;35385;55.668;37.508;2023-10-09T04:58:18;0.30;;;0.30;;
36599;SDS011;35385;55.668;37.508;2023-10-09T04:59:24;1.00;;;0.40;;
36599;SDS011;35385;55.668;37.508;2023-10-09T05:00:25;0.30;;;0.30;;
36599;SDS011;35385;55.668;37.508;2023-10-09T05:01:26;1.27;;;0.40;;
36599;SDS011;35385;55.668;37.508;2023-10-09T05:02:36;0.40;;;0.22;;
36599;SDS011;35385;55.668;37.508;2023-10-09T05:03:38;1.65;;;0.32;;
36599;SDS011;35385;55.668;37.508;2023-10-09T05:04:39;0.40;;;0.40;;
36599;SDS011;35385;55.668;37.508;2023-10-09T05:05:41;0.40;;;0.40;;
36599;SDS011;35385;55.668;37.508;2023-10-09T05:06:42;1.03;;;0.50;;
36599;SDS011;35385;55.668;37.508;2023-10-09T05:07:43;1.00;;;0.40;;
36599;SDS011;35385;55.668;37.508;2023-10-09T05:08:54;0.50;;;0.40;;
36599;SDS011;35385;55.668;37.508;2023-10-09T05:09:55;0.40;;;0.40;;
36599;SDS011;35385;55.668;37.508;2023-10-09T05:11:00;0.30;;;0.30;;
36599;SDS011;35385;55.668;37.508;2023-10-09T05:12:07;0.50;;;0.40;;
36599;SDS011;35385;55.668;37.508;2023-10-09T05:13:15;0.30;;;0.30;;
36599;SDS011;35385;55.668;37.508;2023-10-09T05:14:27;0.40;;;0.40;;
36599;SDS011;35385;55.668;37.508;2023-10-09T05:15:38;1.00;;;0.50;;
36599;SDS011;35385;55.668;37.508;2023-10-09T05:16:46;1.45;;;0.20;;
36599;SDS011;35385;55.668;37.508;2023-10-09T05:17:56;0.65;;;0.30;;
36599;SDS011;35385;55.668;37.508;2023-10-09T05:18:56;2.65;;;0.60;;
36599;SDS011;35385;55.668;37.508;2023-10-09T05:19:59;0.73;;;0.40;;
36599;SDS011;35385;55.668;37.508;2023-10-09T05:21:19;0.32;;;0.32;;
36599;SDS011;35385;55.668;37.508;2023-10-09T05:22:31;1.50;;;0.70;;
36599;SDS011;35385;55.668;37.508;2023-10-09T05:23:39;0.98;;;0.60;;
36599;SDS011;35385;55.668;37.508;2023-10-09T05:24:49;1.10;;;0.30;;
36599;SDS011;35385;55.668;37.508;2023-10-09T05:25:54;0.32;;;0.32;;
36599;SDS011;35385;55.668;37.508;2023-10-09T05:27:07;0.50;;;0.45;;
36599;SDS011;35385;55.668;37.508;2023-10-09T05:28:40;2.35;;;0.60;;
36599;SDS011;35385;55.668;37.508;2023-10-09T05:29:52;1.95;;;0.40;;
36599;SDS011;35385;55.668;37.508;2023-10-09T05:31:22;3.45;;;0.50;;
36599;SDS011;35385;55.668;37.508;2023-10-09T05:32:41;0.55;;;0.40;;
36599;SDS011;35385;55.668;37.508;2023-10-09T05:33:48;0.80;;;0.30;;
36599;SDS011;35385;55.668;37.508;2023-10-09T05:34:53;3.17;;;1.00;;
36599;SDS011;35385;55.668;37.508;2023-10-09T05:36:02;7.25;;;0.75;;
36599;SDS011;35385;55.668;37.508;2023-10-09T05:37:18;1.20;;;0.47;;
36599;SDS011;35385;55.668;37.508;2023-10-09T05:38:26;2.13;;;0.82;;
36599;SDS011;35385;55.668;37.508;2023-10-09T05:39:26;0.80;;;0.60;;
36599;SDS011;35385;55.668;37.508;2023-10-09T05:40:42;1.60;;;0.70;;
36599;SDS011;35385;55.668;37.508;2023-10-09T05:41:44;1.55;;;0.60;;
36599;SDS011;35385;55.668;37.508;2023-10-09T05:43:08;0.93;;;0.73;;
36599;SDS011;35385;55.668;37.508;2023-10-09T05:44:29;1.92;;;0.82;;
36599;SDS011;35385;55.668;37.508;2023-10-09T05:45:49;2.15;;;0.63;;
36599;SDS011;35385;55.668;37.508;2023-10-09T05:47:09;2.63;;;1.50;;
36599;SDS011;35385;55.668;37.508;2023-10-09T05:48:29;2.70;;;0.90;;
36599;SDS011;35385;55.668;37.508;2023-10-09T05:49:38;2.13;;;0.93;;
36599;SDS011;35385;55.668;37.508;2023-10-09T05:51:14;2.20;;;1.30;;
36599;SDS011;35385;55.668;37.508;2023-10-09T05:52:47;2.00;;;1.17;;
36599;SDS011;35385;55.668;37.508;2023-10-09T05:54:08;2.00;;;1.30;;
36599;SDS011;35385;55.668;37.508;2023-10-09T05:55:23;3.47;;;1.25;;
36599;SDS011;35385;55.668;37.508;2023-10-09T05:56:43;2.72;;;1.50;;
36599;SDS011;35385;55.668;37.508;2023-10-09T05:58:02;2.88;;;1.27;;
36599;SDS011;35385;55.668;37.508;2023-10-09T05:59:21;4.25;;;1.40;;
36599;SDS011;35385;55.668;37.508;2023-10-09T06:00:40;4.47;;;1.67;;
36599;SDS011;35385;55.668;37.508;2023-10-09T06:01:59;3.97;;;1.50;;
36599;SDS011;35385;55.668;37.508;2023-10-09T06:03:03;4.18;;;1.98;;
36599;SDS011;35385;55.668;37.508;2023-10-09T06:04:19;4.88;;;1.90;;
36599;SDS011;35385;55.668;37.508;2023-10-09T06:06:39;5.88;;;2.15;;
36599;SDS011;35385;55.668;37.508;2023-10-09T06:07:46;7.35;;;1.92;;
36599;SDS011;35385;55.668;37.508;2023-10-09T06:09:05;2.72;;;1.30;;
36599;SDS011;35385;55.668;37.508;2023-10-09T06:10:16;6.70;;;1.75;;
36599;SDS011;35385;55.668;37.508;2023-10-09T06:11:37;3.85;;;2.25;;
36599;SDS011;35385;55.668;37.508;2023-10-09T06:12:38;4.87;;;2.57;;
36599;SDS011;35385;55.668;37.508;2023-10-09T06:13:44;5.78;;;2.40;;
36599;SDS011;35385;55.668;37.508;2023-10-09T06:14:48;4.30;;;1.92;;
36599;SDS011;35385;55.668;37.508;2023-10-09T06:15:58;5.93;;;1.92;;
36599;SDS011;35385;55.668;37.508;2023-10-09T06:17:20;4.38;;;1.90;;
36599;SDS011;35385;55.668;37.508;2023-10-09T06:18:23;3.75;;;2.05;;
36599;SDS011;35385;55.668;37.508;2023-10-09T06:19:32;6.45;;;1.77;;
36599;SDS011;35385;55.668;37.508;2023-10-09T06:20:43;6.85;;;2.05;;
36599;SDS011;35385;55.668;37.508;2023-10-09T06:22:02;3.85;;;1.20;;
36599;SDS011;35385;55.668;37.508;2023-10-09T06:23:12;3.58;;;1.20;;
36599;SDS011;35385;55.668;37.508;2023-10-09T06:24:16;2.72;;;1.33;;
36599;SDS011;35385;55.668;37.508;2023-10-09T06:25:16;2.20;;;1.27;;
36599;SDS011;35385;55.668;37.508;2023-10-09T06:26:18;1.30;;;0.90;;
36599;SDS011;35385;55.668;37.508;2023-10-09T06:27:25;1.10;;;0.80;;
36599;SDS011;35385;55.668;37.508;2023-10-09T06:28:31;1.33;;;0.70;;
36599;SDS011;35385;55.668;37.508;2023-10-09T06:29:35;1.67;;;0.63;;
36599;SDS011;35385;55.668;37.508;2023-10-09T06:30:36;3.00;;;0.80;;
36599;SDS011;35385;55.668;37.508;2023-10-09T06:31:44;0.63;;;0.60;;
36599;SDS011;35385;55.668;37.508;2023-10-09T06:32:58;2.13;;;1.00;;
36599;SDS011;35385;55.668;37.508;2023-10-09T06:34:04;1.83;;;0.88;;
36599;SDS011;35385;55.668;37.508;2023-10-09T06:35:15;2.00;;;1.20;;
36599;SDS011;35385;55.668;37.508;2023-10-09T06:36:21;1.90;;;0.80;;
36599;SDS011;35385;55.668;37.508;2023-10-09T06:37:31;2.53;;;0.70;;
36599;SDS011;35385;55.668;37.508;2023-10-09T06:38:32;1.50;;;1.05;;
36599;SDS011;35385;55.668;37.508;2023-10-09T06:40:05;2.38;;;0.80;;
36599;SDS011;35385;55.668;37.508;2023-10-09T06:41:25;1.15;;;0.80;;
36599;SDS011;35385;55.668;37.508;2023-10-09T06:42:45;4.03;;;0.45;;
36599;SDS011;35385;55.668;37.508;2023-10-09T06:43:51;4.00;;;0.57;;
36599;SDS011;35385;55.668;37.508;2023-10-09T06:44:53;1.80;;;1.00;;
36599;SDS011;35385;55.668;37.508;2023-10-09T06:45:54;1.43;;;0.70;;
36599;SDS011;35385;55.668;37.508;2023-10-09T06:47:16;3.25;;;1.27;;